Etusivu
METAR-TAF:

METAR-TAF

Lentoasemat :

Paderborn-Lippstadt, Saksa

Leveyspiiri: 51-37N, Pituuspiiri: 008-37E, korkeus merenpinnasta: 213 m

Tämänhetkinen sää

Tämä raportti tehtiin 18 minuuttia sitten, kello 19.20 UTC
Tuuli 3 kn eri suunnista
Lämpötila 20°C
Kosteus 49%
Ilmanpaine 1024 hPa
Näkyvyys 10 km tai enemmän
ei pilviä alle 1500 m:ssä eikä cumulonimbus-pilviä

METAR: EDLP 231920Z VRB03KT CAVOK 20/09 Q1024

Aika: 21:38 (19:38 UTC)

Sääennuste

Tämä raportti tehtiin 2 tuntia ja 38 minuuttia sitten, kello 17.00 UTC
Ennuste voimassa 23. päivästä klo 18 UTC - 24. päivään klo 18 UTC
Tuuli 6 kn koillisesta
Näkyvyys 10 km tai enemmän
ei pilviä alle 1500 m:ssä eikä cumulonimbus-pilviä
Tulossa
23. päivästä klo 18 UTC - 23. päivään klo 21 UTC
Tuuli 4 kn kaakosta
Tulossa
24. päivästä klo 06 UTC - 24. päivään klo 08 UTC
Tuuli 9 kn idästä

TAF: EDLP 231700Z 2318/2418 05006KT CAVOK BECMG 2318/2321 13004KT BECMG 2406/2408 10009KT

Säähavainnot ja -ennusteet yli 4000 lentoasemalta (METAR- ja TAF-raportit).

Käytössä olevat sääasemat on merkitty karttaan keltaisilla ja punaisilla pisteillä.

Aseta hiiri pisteen päälle nähdäksesi sääaseman nimen.

Klikkaa sitten nähdäksesi säähavainnot ja -ennusteet.

Kartan vaihtaminen: klikkaa mustalla rastilla varustettuja vihreitä pisteitä, niin voit zoomata sisään; viivalla varustettua vihreää pistettä, niin voit zoomata ulos tai vihreitä nuolia, niin pääset viereisille kartoille.


METAR-TAF: